createdAt,value
2022-10-03T00:02:37.942Z,10.20
2022-10-03T00:05:39.591Z,10.20
2022-10-03T00:08:31.488Z,10.40
2022-10-03T00:11:22.048Z,10.30
2022-10-03T00:14:01.984Z,10.40
2022-10-03T00:16:59.607Z,10.30
2022-10-03T00:20:05.346Z,10.30
2022-10-03T00:22:56.844Z,10.30
2022-10-03T00:26:22.544Z,10.30
2022-10-03T00:29:20.362Z,10.30
2022-10-03T00:32:24.603Z,10.30
2022-10-03T00:35:15.507Z,10.30
2022-10-03T00:38:18.404Z,10.20
2022-10-03T00:41:14.487Z,10.20
2022-10-03T00:44:13.232Z,10.40
2022-10-03T00:47:05.479Z,10.40
2022-10-03T00:49:54.250Z,10.50
2022-10-03T00:52:52.935Z,10.50
2022-10-03T00:55:52.204Z,10.50
2022-10-03T00:58:55.414Z,10.60
2022-10-03T01:01:34.228Z,10.70
2022-10-03T01:04:27.855Z,10.80
2022-10-03T01:07:29.657Z,10.80
2022-10-03T01:10:12.773Z,10.80
2022-10-03T01:13:06.066Z,10.80
2022-10-03T01:16:10.353Z,10.80
2022-10-03T01:19:22.716Z,10.90
2022-10-03T01:22:41.025Z,10.90
2022-10-03T01:25:48.022Z,11.00
2022-10-03T01:28:56.667Z,11.00
2022-10-03T01:31:50.371Z,10.90
2022-10-03T01:34:27.731Z,11.00
2022-10-03T01:37:15.518Z,10.90
2022-10-03T01:40:03.799Z,10.90
2022-10-03T01:42:45.059Z,10.90
2022-10-03T01:45:46.705Z,10.90
2022-10-03T01:48:22.822Z,10.90
2022-10-03T01:51:14.076Z,10.90
2022-10-03T01:53:50.158Z,11.00
2022-10-03T01:56:38.860Z,11.00
2022-10-03T01:59:38.581Z,11.00
2022-10-03T02:02:27.270Z,11.00
2022-10-03T02:05:09.998Z,11.10
2022-10-03T02:08:11.659Z,11.10
2022-10-03T02:11:00.330Z,11.10
2022-10-03T02:13:57.442Z,11.10
2022-10-03T02:16:52.770Z,11.00
2022-10-03T02:19:51.721Z,11.00
2022-10-03T02:22:42.639Z,11.00
2022-10-03T02:25:55.812Z,11.00
2022-10-03T02:28:55.453Z,11.00
2022-10-03T02:31:43.633Z,11.00
2022-10-03T02:34:53.516Z,11.00
2022-10-03T02:37:55.840Z,11.00
2022-10-03T02:41:15.514Z,11.00
2022-10-03T02:44:45.899Z,11.00
2022-10-03T02:58:06.507Z,11.20
2022-10-03T03:01:13.987Z,11.20
2022-10-03T03:23:43.622Z,11.20
2022-10-03T03:26:54.435Z,11.20
2022-10-03T03:30:02.387Z,11.20
2022-10-03T03:32:46.092Z,11.20
2022-10-03T03:35:57.567Z,11.20
2022-10-03T03:39:04.111Z,11.20
2022-10-03T03:42:12.360Z,11.20
2022-10-03T03:45:12.234Z,11.20
2022-10-03T03:48:03.374Z,11.20
2022-10-03T03:50:57.275Z,11.10
2022-10-03T03:54:08.733Z,11.10
2022-10-03T03:57:21.908Z,11.20
2022-10-03T04:00:09.407Z,11.20
2022-10-03T04:03:10.662Z,11.10
2022-10-03T04:06:41.775Z,11.10
2022-10-03T04:09:40.046Z,11.10
2022-10-03T04:12:17.586Z,11.10
2022-10-03T04:15:07.348Z,11.10
2022-10-03T04:18:48.574Z,11.00
2022-10-03T04:21:52.080Z,11.10
2022-10-03T04:24:41.011Z,11.10
2022-10-03T04:27:41.556Z,11.10
2022-10-03T04:30:30.998Z,11.00
2022-10-03T04:33:09.368Z,11.00
2022-10-03T04:36:12.833Z,11.00
2022-10-03T04:39:01.579Z,11.10
2022-10-03T04:42:05.030Z,11.10
2022-10-03T04:45:04.186Z,11.00
2022-10-03T04:47:46.584Z,11.10
2022-10-03T04:50:34.171Z,11.00
2022-10-03T04:53:54.850Z,11.00
2022-10-03T04:57:03.273Z,11.00
2022-10-03T04:59:59.285Z,11.00
2022-10-03T05:02:43.598Z,11.00
2022-10-03T05:05:40.081Z,11.00
2022-10-03T05:08:29.030Z,10.90
2022-10-03T05:11:40.475Z,10.90
2022-10-03T05:14:26.152Z,10.80
2022-10-03T05:17:19.733Z,10.80
2022-10-03T05:20:10.508Z,10.70
2022-10-03T05:23:15.013Z,10.60
2022-10-03T05:26:43.735Z,10.60
2022-10-03T05:29:25.354Z,10.60
2022-10-03T05:32:31.745Z,10.60
2022-10-03T05:35:27.020Z,10.60
2022-10-03T05:38:34.321Z,10.60
2022-10-03T05:41:26.501Z,10.60
2022-10-03T05:44:18.094Z,10.60
2022-10-03T05:47:49.012Z,10.60
2022-10-03T05:50:42.052Z,10.60
2022-10-03T05:53:53.666Z,10.70
2022-10-03T05:56:48.873Z,10.70
2022-10-03T06:00:01.337Z,10.80
2022-10-03T06:02:37.399Z,10.80
2022-10-03T06:05:29.917Z,10.80
2022-10-03T06:08:23.377Z,10.80
2022-10-03T06:11:13.686Z,10.80
2022-10-03T06:52:00.407Z,11.40
2022-10-03T06:55:07.854Z,11.40
2022-10-03T06:57:49.326Z,11.50
2022-10-03T07:00:53.525Z,11.60
2022-10-03T07:03:54.271Z,11.70
2022-10-03T07:07:21.603Z,11.70
2022-10-03T07:10:15.663Z,11.70
2022-10-03T07:13:35.260Z,11.70
2022-10-03T07:16:28.420Z,11.70
2022-10-03T07:19:30.025Z,11.70
2022-10-03T07:22:47.966Z,11.50
2022-10-03T07:25:41.637Z,11.30
2022-10-03T07:28:44.963Z,11.20
2022-10-03T07:31:29.656Z,11.20
2022-10-03T07:34:53.842Z,11.20
2022-10-03T07:38:12.035Z,11.20
2022-10-03T07:41:05.344Z,11.30
2022-10-03T07:44:12.945Z,11.50
2022-10-03T07:47:06.469Z,11.60
2022-10-03T07:49:59.013Z,11.70
2022-10-03T07:52:54.216Z,11.90
2022-10-03T07:55:46.307Z,12.00
2022-10-03T07:58:26.725Z,12.00
2022-10-03T08:01:30.756Z,11.90
2022-10-03T08:04:36.704Z,11.80
2022-10-03T08:07:45.455Z,11.90
2022-10-03T08:10:57.154Z,12.00
2022-10-03T08:14:29.088Z,12.10
2022-10-03T08:18:01.407Z,12.00
2022-10-03T08:20:41.115Z,12.20
2022-10-03T09:10:20.671Z,13.00
2022-10-03T09:13:09.895Z,12.90
2022-10-03T09:16:21.993Z,13.00
2022-10-03T09:19:27.149Z,13.10
2022-10-03T09:22:15.363Z,13.10
2022-10-03T09:25:16.107Z,13.30
2022-10-03T09:28:23.168Z,13.30
2022-10-03T09:31:41.148Z,13.50
2022-10-03T09:34:50.752Z,13.70
2022-10-03T09:37:29.387Z,13.50
2022-10-03T09:40:17.139Z,13.70
2022-10-03T09:43:11.457Z,13.90
2022-10-03T09:46:09.847Z,14.20
2022-10-03T09:49:25.967Z,14.50
2022-10-03T09:52:09.130Z,14.80
2022-10-03T09:55:13.618Z,14.60
2022-10-03T09:58:17.128Z,14.30
2022-10-03T10:01:04.371Z,14.10
2022-10-03T10:04:10.136Z,13.90
2022-10-03T10:07:29.610Z,13.90
2022-10-03T10:10:40.103Z,14.00
2022-10-03T10:14:05.776Z,13.90
2022-10-03T10:50:16.445Z,14.40
2022-10-03T10:53:09.572Z,14.60
2022-10-03T10:56:10.156Z,14.60
2022-10-03T10:59:16.695Z,14.40
2022-10-03T11:02:11.503Z,14.60
2022-10-03T11:05:17.528Z,14.70
2022-10-03T11:08:40.462Z,14.90
2022-10-03T11:11:58.772Z,14.80
2022-10-03T11:15:07.609Z,14.50
2022-10-03T11:18:02.544Z,14.40
2022-10-03T11:21:14.445Z,14.40
2022-10-03T11:24:06.222Z,14.30
2022-10-03T11:27:17.837Z,14.40
2022-10-03T11:30:20.512Z,14.60
2022-10-03T11:33:32.702Z,14.60
2022-10-03T11:36:47.382Z,14.70
2022-10-03T11:39:42.276Z,14.80
2022-10-03T11:42:29.730Z,14.60
2022-10-03T11:45:03.649Z,14.40
2022-10-03T11:48:03.699Z,14.30
2022-10-03T11:50:50.329Z,14.30
2022-10-03T11:53:36.073Z,14.60
2022-10-03T11:56:39.177Z,15.00
2022-10-03T11:59:42.659Z,15.20
2022-10-03T12:02:15.458Z,15.60
2022-10-03T12:05:41.007Z,15.60
2022-10-03T12:08:53.539Z,15.40
2022-10-03T12:11:51.974Z,15.40
2022-10-03T12:14:29.180Z,15.30
2022-10-03T12:17:15.911Z,15.30
2022-10-03T12:20:10.611Z,15.30
2022-10-03T12:22:51.852Z,15.30
2022-10-03T12:25:30.355Z,15.20
2022-10-03T12:28:25.978Z,15.20
2022-10-03T12:31:07.087Z,15.20
2022-10-03T12:34:15.469Z,15.10
2022-10-03T12:37:06.138Z,15.00
2022-10-03T12:40:27.710Z,14.70
2022-10-03T12:43:52.062Z,14.70
2022-10-03T12:46:31.372Z,14.70
2022-10-03T12:49:14.032Z,14.60
2022-10-03T12:51:53.732Z,14.50
2022-10-03T12:54:59.873Z,14.60
2022-10-03T12:57:55.069Z,14.50
2022-10-03T13:00:53.644Z,14.30
2022-10-03T13:03:44.464Z,14.50
2022-10-03T13:07:03.395Z,14.60
2022-10-03T13:09:59.625Z,14.70
2022-10-03T13:12:54.881Z,14.80
2022-10-03T13:16:04.563Z,14.80
2022-10-03T13:18:47.460Z,14.90
2022-10-03T13:21:47.046Z,15.00
2022-10-03T13:24:37.196Z,14.90
2022-10-03T13:27:26.423Z,15.00
2022-10-03T13:30:21.203Z,15.00
2022-10-03T13:32:56.272Z,15.20
2022-10-03T13:35:52.913Z,15.20
2022-10-03T13:38:55.249Z,15.20
2022-10-03T13:42:13.571Z,15.10
2022-10-03T13:44:55.720Z,15.10
2022-10-03T13:47:29.376Z,14.90
2022-10-03T13:50:02.559Z,14.90
2022-10-03T13:52:46.494Z,14.90
2022-10-03T13:55:49.671Z,14.70
2022-10-03T13:58:40.285Z,14.70
2022-10-03T14:01:17.252Z,14.60
2022-10-03T14:04:29.105Z,14.60
2022-10-03T14:07:12.180Z,14.50
2022-10-03T14:10:26.472Z,14.40
2022-10-03T14:13:13.595Z,14.40
2022-10-03T14:15:49.811Z,14.50
2022-10-03T14:18:44.894Z,14.40
2022-10-03T14:21:46.606Z,14.50
2022-10-03T14:24:40.193Z,14.60
2022-10-03T14:27:32.546Z,14.70
2022-10-03T14:30:04.006Z,14.80
2022-10-03T14:32:48.340Z,14.90
2022-10-03T14:35:25.385Z,14.90
2022-10-03T14:38:23.800Z,14.80
2022-10-03T14:41:01.094Z,14.80
2022-10-03T14:43:45.971Z,15.00
2022-10-03T14:46:15.904Z,15.10
2022-10-03T14:48:50.014Z,15.10
2022-10-03T14:51:32.296Z,15.10
2022-10-03T14:54:17.155Z,15.10
2022-10-03T14:56:48.010Z,15.20
2022-10-03T14:59:26.913Z,15.20
2022-10-03T15:02:00.055Z,15.00
2022-10-03T15:04:42.774Z,14.90
2022-10-03T15:07:13.472Z,14.90
2022-10-03T15:09:49.006Z,14.80
2022-10-03T15:12:27.045Z,14.70
2022-10-03T15:15:01.594Z,14.50
2022-10-03T15:17:33.744Z,14.60
2022-10-03T15:20:02.905Z,14.60
2022-10-03T15:22:42.376Z,14.60
2022-10-03T15:25:33.883Z,14.60
2022-10-03T15:28:24.492Z,14.60
2022-10-03T15:30:54.062Z,14.90
2022-10-03T15:33:33.882Z,15.20
2022-10-03T15:36:37.582Z,15.70
2022-10-03T15:39:21.627Z,15.60
2022-10-03T15:42:09.636Z,15.10
2022-10-03T15:44:40.001Z,14.80
2022-10-03T15:47:35.258Z,14.60
2022-10-03T15:50:39.150Z,14.50
2022-10-03T15:53:36.052Z,14.60
2022-10-03T15:56:24.160Z,14.60
2022-10-03T15:59:00.484Z,14.30
2022-10-03T16:01:41.088Z,14.10
2022-10-03T16:04:33.797Z,13.90
2022-10-03T16:07:12.440Z,13.80
2022-10-03T16:10:27.791Z,13.80
2022-10-03T16:13:17.983Z,13.80
2022-10-03T16:16:10.104Z,13.80
2022-10-03T16:18:53.840Z,13.80
2022-10-03T16:22:01.663Z,13.80
2022-10-03T16:24:42.167Z,13.80
2022-10-03T16:27:31.290Z,13.70
2022-10-03T16:30:21.469Z,13.80
2022-10-03T16:33:24.069Z,13.70
2022-10-03T16:36:00.918Z,13.60
2022-10-03T16:38:44.424Z,13.70
2022-10-03T16:41:34.504Z,13.70
2022-10-03T16:44:04.942Z,13.70
2022-10-03T16:46:35.521Z,13.70
2022-10-03T16:49:28.942Z,13.80
2022-10-03T16:52:08.112Z,13.80
2022-10-03T16:54:36.817Z,13.90
2022-10-03T16:57:12.795Z,13.90
2022-10-03T16:59:46.961Z,13.80
2022-10-03T17:02:25.471Z,13.80
2022-10-03T17:05:04.912Z,13.80
2022-10-03T17:08:23.575Z,13.70
2022-10-03T17:10:57.302Z,13.60
2022-10-03T17:13:47.045Z,13.60
2022-10-03T17:16:47.759Z,13.60
2022-10-03T17:19:34.026Z,13.60
2022-10-03T17:22:13.471Z,13.60
2022-10-03T17:24:53.031Z,13.60
2022-10-03T17:27:38.301Z,13.50
2022-10-03T17:30:31.895Z,13.50
2022-10-03T17:33:08.864Z,13.50
2022-10-03T17:36:25.216Z,13.50
2022-10-03T17:39:05.638Z,13.50
2022-10-03T17:41:36.218Z,13.60
2022-10-03T17:44:34.501Z,13.60
2022-10-03T17:47:24.028Z,13.60
2022-10-03T17:50:17.019Z,13.50
2022-10-03T17:52:47.220Z,13.50
2022-10-03T17:55:29.868Z,13.60
2022-10-03T17:58:04.075Z,13.50
2022-10-03T18:00:46.628Z,13.50
2022-10-03T18:03:29.440Z,13.40
2022-10-03T18:06:03.226Z,13.40
2022-10-03T18:08:34.956Z,13.50
2022-10-03T18:11:03.301Z,13.50
2022-10-03T18:13:42.389Z,13.40
2022-10-03T18:16:34.836Z,13.40
2022-10-03T18:19:21.894Z,13.30
2022-10-03T18:22:26.820Z,13.30
2022-10-03T18:25:39.289Z,13.10
2022-10-03T18:28:35.107Z,13.10
2022-10-03T18:31:11.044Z,12.90
2022-10-03T18:34:01.376Z,12.90
2022-10-03T18:36:39.218Z,12.80
2022-10-03T18:39:18.957Z,12.70
2022-10-03T18:41:49.550Z,12.70
2022-10-03T18:44:22.950Z,12.70
2022-10-03T18:46:57.988Z,12.70
2022-10-03T18:49:34.458Z,12.70
2022-10-03T18:52:28.281Z,12.70
2022-10-03T18:55:21.483Z,12.70
2022-10-03T18:58:01.343Z,12.60
2022-10-03T19:00:31.564Z,12.60
2022-10-03T19:03:11.407Z,12.60
2022-10-03T19:05:57.198Z,12.60
2022-10-03T19:08:26.833Z,12.50
2022-10-03T19:11:01.091Z,12.50
2022-10-03T19:13:57.772Z,12.50
2022-10-03T19:16:49.886Z,12.50
2022-10-03T19:19:59.020Z,12.50
2022-10-03T19:22:39.029Z,12.50
2022-10-03T19:25:15.878Z,12.40
2022-10-03T19:27:49.829Z,12.40
2022-10-03T19:30:22.906Z,12.40
2022-10-03T19:33:07.644Z,12.40
2022-10-03T19:35:40.506Z,12.40
2022-10-03T19:38:23.226Z,12.40
2022-10-03T19:41:26.842Z,12.50
2022-10-03T19:43:55.592Z,12.50
2022-10-03T19:47:15.209Z,12.40
2022-10-03T19:50:01.908Z,12.40
2022-10-03T19:52:34.313Z,12.30
2022-10-03T19:55:19.022Z,12.40
2022-10-03T19:57:53.583Z,12.40
2022-10-03T20:00:25.837Z,12.30
2022-10-03T20:03:06.493Z,12.30
2022-10-03T20:05:41.720Z,12.40
2022-10-03T20:08:29.104Z,12.40
2022-10-03T20:11:42.031Z,12.40
2022-10-03T20:14:26.730Z,12.40
2022-10-03T20:19:54.883Z,12.40
2022-10-03T20:22:26.629Z,12.50
2022-10-03T20:24:54.758Z,12.50
2022-10-03T20:27:47.102Z,12.60
2022-10-03T20:30:17.114Z,12.60
2022-10-03T20:32:46.428Z,12.50
2022-10-03T20:35:19.469Z,12.60
2022-10-03T20:37:57.461Z,12.60
2022-10-03T20:40:30.720Z,12.60
2022-10-03T20:43:27.219Z,12.60
2022-10-03T20:46:35.802Z,12.60
2022-10-03T20:49:31.611Z,12.70
2022-10-03T20:52:02.314Z,12.70
2022-10-03T20:54:35.632Z,12.60
2022-10-03T20:57:15.503Z,12.70
2022-10-03T20:59:51.936Z,12.60
2022-10-03T21:02:40.708Z,12.60
2022-10-03T21:05:34.720Z,12.70
2022-10-03T21:08:18.904Z,12.70
2022-10-03T21:11:00.032Z,12.70
2022-10-03T21:13:58.966Z,12.80
2022-10-03T21:16:30.931Z,12.70
2022-10-03T21:19:00.760Z,12.70
2022-10-03T21:21:42.144Z,12.70
2022-10-03T21:24:36.275Z,12.70
2022-10-03T21:27:18.287Z,12.70
2022-10-03T21:30:19.835Z,12.70
2022-10-03T21:33:05.226Z,12.70
2022-10-03T21:35:37.376Z,12.80
2022-10-03T21:38:29.010Z,12.70
2022-10-03T21:41:14.846Z,12.80
2022-10-03T21:44:02.887Z,12.70
2022-10-03T21:46:46.244Z,12.70
2022-10-03T21:49:37.628Z,12.70
2022-10-03T21:52:54.561Z,12.70
2022-10-03T21:56:00.228Z,12.70
2022-10-03T21:58:36.722Z,12.70
2022-10-03T22:01:04.444Z,12.60
2022-10-03T22:04:00.209Z,12.60
2022-10-03T22:06:58.018Z,12.70
2022-10-03T22:09:25.400Z,12.70
2022-10-03T22:12:03.046Z,12.70
2022-10-03T22:14:32.972Z,12.70
2022-10-03T22:17:16.534Z,12.80
2022-10-03T22:19:59.481Z,12.80
2022-10-03T22:22:42.443Z,12.80
2022-10-03T22:26:04.061Z,12.80
2022-10-03T22:28:57.838Z,12.80
2022-10-03T22:31:46.272Z,12.80
2022-10-03T22:34:48.432Z,12.80
2022-10-03T22:37:15.937Z,12.80
2022-10-03T22:39:43.518Z,12.80
2022-10-03T22:42:15.150Z,12.80
2022-10-03T22:44:50.188Z,12.90
2022-10-03T22:47:27.794Z,12.80
2022-10-03T22:50:00.814Z,12.90
2022-10-03T22:52:41.254Z,12.90
2022-10-03T22:55:14.544Z,12.80
2022-10-03T22:57:44.485Z,12.80
2022-10-03T23:00:23.638Z,12.80
2022-10-03T23:03:05.347Z,12.80
2022-10-03T23:05:57.104Z,12.80
2022-10-03T23:09:02.231Z,12.70
2022-10-03T23:11:32.073Z,12.80
2022-10-03T23:14:06.032Z,12.70
2022-10-03T23:16:44.305Z,12.80
2022-10-03T23:19:34.964Z,12.80
2022-10-03T23:22:02.827Z,12.70
2022-10-03T23:24:47.836Z,12.80
2022-10-03T23:27:33.481Z,12.70
2022-10-03T23:30:54.164Z,12.70
2022-10-03T23:33:53.728Z,12.70
2022-10-03T23:36:24.511Z,12.60
2022-10-03T23:38:54.584Z,12.60
2022-10-03T23:41:31.345Z,12.50
2022-10-03T23:43:59.328Z,12.40
2022-10-03T23:46:30.099Z,12.30
2022-10-03T23:49:00.354Z,12.30
2022-10-03T23:51:31.918Z,12.20
2022-10-03T23:54:03.957Z,12.20
2022-10-03T23:56:37.330Z,12.20
2022-10-03T23:59:25.372Z,12.20
